Dobrodošli na spletni strani vremenske postaje Senovo. Vse informacije so informativnega značaja, saj vremenska postaja ni del državne mreže meteoroloških postaj. AKTUALNIH OBVESTIL NI.


Posebna pozornost v zvezi z vremenskimi dogajanji ni potrebna.    Posebna pozornost v zvezi z vremenskimi dogajanji ni potrebna.

Pogled proti Armezu več informacij Pogled proti Armezu


Bohor več informacij Bohor


Radar strel več informacij blitzortung!


Radar padavin več informacij rain snow radar


Obiščite še:

Template documentation
and downloads

And another site



Weather Underground, zgodovina - Tekstovno

Dnevni povzetek za December 5, 2017 Enote:  Metrično    Angleško   Obe
« Predhodni Dan
Naslednji Dan »
Dnevni Tedenski Mesečni Letni Po meri
  Višja: Nižja: Povprečje:
Temperatura: -17.8 °C -20.6 °C -18.4 °C
Točka rosišča: -17.8 °C -21.5 °C -20.1 °C
Vlažnost: Humidity % 0 % 81 %
Hitrost vetra: 0 km/h 0 km/h 2.3 km/h
Sunki vetra: 0 km/h - -
Veter:- - SW
Zračni tlak: 0 hPa 0 hPa -
Padavine: 0 mm    
Historical Graphs
 
 
Tabelarni podarki za December 5, 2017
Čas Temperatura Točka rosišča Zračni tlak Veter Hitrost vetra Sunki vetra Vlažnost Intenziteta padavin (urna)
-17.8 °C -17.8 °C 0 hPa Calm     Humidity % 0 mm
00:03 -19.7 °C -20.8 °C 34774.2 hPa SW 1.8 km/h 5.6 km/h 86 % 0 mm
00:08 -19.7 °C -20.8 °C 34774.2 hPa WNW 4.2 km/h 6.9 km/h 86 % 0 mm
00:13 -19.8 °C -20.9 °C 34774.2 hPa NW 2.6 km/h 6.9 km/h 86 % 0 mm
00:18 -19.8 °C -20.9 °C 34774.2 hPa NW 1 km/h 4.2 km/h 86 % 0 mm
00:23 -19.9 °C -21 °C 34774.2 hPa NNW 2.1 km/h 5.1 km/h 86 % 0 mm
00:28 -17.8 °C -21.1 °C 0 hPa NW 2.6 km/h 6.4 km/h 0 % 0 mm
00:33 -20 °C -21 °C 34774.2 hPa North 1.3 km/h 6.4 km/h 87 % 0 mm
00:38 -20 °C -21 °C 34774.2 hPa NNE 0.5 km/h 4.2 km/h 87 % 0 mm
00:43 -20.1 °C -21.1 °C 34774.2 hPa Calm   4.2 km/h 87 % 0 mm
00:48 -20.1 °C -21.2 °C 34774.2 hPa WNW 1.6 km/h 6.4 km/h 87 % 0 mm
00:53 -20.2 °C -21.2 °C 34774.2 hPa WNW 1.8 km/h 6.4 km/h 87 % 0 mm
00:58 -20.2 °C -21.2 °C 34774.2 hPa NW 1 km/h 5.1 km/h 87 % 0 mm
01:03 -20.2 °C -21.2 °C 34774.2 hPa NW 0.8 km/h 5.1 km/h 87 % 0 mm
01:08 -20.2 °C -21.2 °C 34774.2 hPa Calm     87 % 0 mm
01:13 -20.3 °C -21.3 °C 34740.4 hPa Calm     87 % 0 mm
01:18 -20.3 °C -21.3 °C 34740.4 hPa NW 0.8 km/h 6.9 km/h 87 % 0 mm
01:23 -20.3 °C -21.3 °C 34740.4 hPa WNW 3.7 km/h 7.6 km/h 87 % 0 mm
01:28 -20.2 °C -21.2 °C 34774.2 hPa West 3.7 km/h 7.6 km/h 87 % 0 mm
01:33 -20.2 °C -21.2 °C 34774.2 hPa Calm     87 % 0 mm
01:38 -20.2 °C -21.2 °C 34774.2 hPa Calm     87 % 0 mm
01:40 -20.2 °C -21.2 °C 34774.2 hPa Calm     87 % 0 mm
01:45 -20.2 °C -21.2 °C 34774.2 hPa Calm     87 % 0 mm
01:50 -20.2 °C -21.2 °C 34774.2 hPa West 0.8 km/h 8 km/h 87 % 0 mm
01:55 -20.2 °C -21.2 °C 34774.2 hPa West 1.8 km/h 8 km/h 87 % 0 mm
02:00 -20.3 °C -21.3 °C 34774.2 hPa WSW 1.3 km/h 6.4 km/h 87 % 0 mm
02:05 -20.3 °C -21.3 °C 34774.2 hPa Calm     87 % 0 mm
02:10 -20.3 °C -21.3 °C 34774.2 hPa Calm     87 % 0 mm
02:15 -20.3 °C -21.3 °C 34808.1 hPa NW 0.5 km/h 5.1 km/h 87 % 0 mm
02:20 -20.4 °C -21.4 °C 34808.1 hPa NW 0.5 km/h 5.1 km/h 87 % 0 mm
02:25 -20.4 °C -21.4 °C 34808.1 hPa Calm     87 % 0 mm
02:30 -20.4 °C -21.4 °C 34808.1 hPa Calm     87 % 0 mm
02:35 -20.4 °C -21.4 °C 34808.1 hPa NNW 0.8 km/h 6.4 km/h 87 % 0 mm
02:40 -20.5 °C -21.5 °C 34808.1 hPa NNW 0.8 km/h 6.4 km/h 87 % 0 mm
02:45 -20.6 °C -21.5 °C 34808.1 hPa Calm     88 % 0 mm
02:50 -20.6 °C -21.5 °C 34808.1 hPa Calm   5.1 km/h 88 % 0 mm
02:55 -20.6 °C -21.5 °C 34808.1 hPa WSW 2.6 km/h 8 km/h 88 % 0 mm
03:00 -20.5 °C -21.5 °C 34808.1 hPa WSW 4.2 km/h 8 km/h 87 % 0 mm
03:05 -20.6 °C -21.5 °C 34808.1 hPa NNW 3.1 km/h 7.6 km/h 88 % 0 mm
03:10 -20.5 °C -21.4 °C 34808.1 hPa NNW 3.9 km/h 7.6 km/h 88 % 0 mm
03:15 -20.4 °C -21.4 °C 34808.1 hPa NNW 2.9 km/h 7.6 km/h 88 % 0 mm
03:20 -20.4 °C -21.3 °C 34808.1 hPa ENE 1 km/h 5.1 km/h 88 % 0 mm
03:25 -20.3 °C -21.3 °C 34808.1 hPa SE 2.1 km/h 7.6 km/h 88 % 0 mm
03:30 -20.3 °C -21.2 °C 34808.1 hPa SE 2.1 km/h 7.6 km/h 88 % 0 mm
03:35 -20.2 °C -21.2 °C 34808.1 hPa North 0.5 km/h   88 % 0 mm
03:40 -20.2 °C -21.1 °C 34808.1 hPa Calm   2.9 km/h 88 % 0 mm
03:45 -20.1 °C -20.9 °C 34808.1 hPa North 0.5 km/h 5.1 km/h 89 % 0 mm
03:50 -20.1 °C -20.9 °C 34808.1 hPa NNE 0.5 km/h 5.1 km/h 89 % 0 mm
03:55 -20 °C -20.9 °C 34808.1 hPa Calm     89 % 0 mm
04:00 -20 °C -20.9 °C 34808.1 hPa Calm     89 % 0 mm
04:05 -19.9 °C -20.8 °C 34808.1 hPa Calm     89 % 0 mm
04:10 -19.9 °C -20.8 °C 34808.1 hPa Calm   2.3 km/h 89 % 0 mm
04:15 -19.9 °C -20.7 °C 34808.1 hPa Calm   2.3 km/h 89 % 0 mm
04:20 -19.9 °C -20.7 °C 34808.1 hPa NW 0.3 km/h 3.4 km/h 89 % 0 mm
04:25 -19.9 °C -20.7 °C 34808.1 hPa NW 0.8 km/h 4.2 km/h 89 % 0 mm
04:27 -19.9 °C -20.7 °C 34808.1 hPa NW 0.8 km/h 4.2 km/h 89 % 0 mm
04:32 -19.9 °C -20.7 °C 34808.1 hPa West 0.5 km/h 6.4 km/h 89 % 0 mm
04:37 -19.8 °C -20.7 °C 34808.1 hPa SW 0.8 km/h 6.4 km/h 89 % 0 mm
04:42 -19.8 °C -20.7 °C 34841.9 hPa SSW 1 km/h 4.2 km/h 89 % 0 mm
04:47 -19.8 °C -20.7 °C 34841.9 hPa NW 1.6 km/h 6.4 km/h 89 % 0 mm
04:52 -19.8 °C -20.7 °C 34841.9 hPa NNW 1.8 km/h 6.4 km/h 89 % 0 mm
04:57 -19.8 °C -20.7 °C 34841.9 hPa NNW 0.8 km/h 4.2 km/h 89 % 0 mm
05:00 -19.8 °C -20.7 °C 34841.9 hPa North 0.5 km/h   89 % 0 mm
05:02 -19.8 °C -20.7 °C 34841.9 hPa North 0.5 km/h   89 % 0 mm
05:04 -19.8 °C -20.7 °C 34841.9 hPa North 0.3 km/h   89 % 0 mm
05:05 -19.8 °C -20.7 °C 34841.9 hPa Calm     89 % 0 mm
05:15 -19.8 °C -20.7 °C 34841.9 hPa Calm     89 % 0 mm
05:20 -19.9 °C -20.7 °C 34841.9 hPa SW 1 km/h 6.4 km/h 89 % 0 mm
05:25 -19.9 °C -20.7 °C 34841.9 hPa SW 2.1 km/h 6.4 km/h 89 % 0 mm
05:30 -19.9 °C -20.7 °C 34841.9 hPa SW 1 km/h 5.1 km/h 89 % 0 mm
05:35 -19.9 °C -20.8 °C 34841.9 hPa Calm     89 % 0 mm
05:40 -19.9 °C -20.8 °C 34841.9 hPa Calm     89 % 0 mm
05:45 -20 °C -20.8 °C 34841.9 hPa Calm     90 % 0 mm
05:50 -20.1 °C -20.8 °C 34841.9 hPa Calm     90 % 0 mm
05:55 -20.1 °C -20.9 °C 34841.9 hPa SSW 3.1 km/h 6.9 km/h 90 % 0 mm
06:00 -20.1 °C -20.9 °C 34841.9 hPa SW 6 km/h 7.6 km/h 90 % 0 mm
06:05 -20.2 °C -20.9 °C 34841.9 hPa SW 3.4 km/h 7.6 km/h 90 % 0 mm
06:10 -20.2 °C -21 °C 34841.9 hPa NNW 1.8 km/h 6.4 km/h 90 % 0 mm
06:15 -20.3 °C -21.1 °C 34841.9 hPa NNW 1.6 km/h 6.4 km/h 90 % 0 mm
06:20 -20.3 °C -21.1 °C 34841.9 hPa WSW 0.5 km/h 4.2 km/h 90 % 0 mm
06:25 -20.3 °C -21.1 °C 34841.9 hPa West 2.9 km/h 6.4 km/h 90 % 0 mm
06:30 -20.4 °C -21.2 °C 34841.9 hPa West 2.9 km/h 6.4 km/h 89 % 0 mm
06:35 -20.4 °C -21.2 °C 34841.9 hPa West 2.6 km/h 6.4 km/h 89 % 0 mm
06:40 -20.4 °C -21.3 °C 34841.9 hPa West 2.1 km/h 6.4 km/h 89 % 0 mm
06:45 -20.5 °C -21.3 °C 34841.9 hPa SW 1 km/h 4.2 km/h 89 % 0 mm
06:50 -20.5 °C -21.3 °C 34841.9 hPa SW 0.5 km/h 6.9 km/h 89 % 0 mm
06:55 -20.5 °C -21.3 °C 34841.9 hPa WSW 2.6 km/h 8 km/h 89 % 0 mm
07:00 -20.5 °C -21.3 °C 34841.9 hPa West 3.4 km/h 8 km/h 89 % 0 mm
07:05 -20.5 °C -21.3 °C 34841.9 hPa NW 2.1 km/h 6.9 km/h 89 % 0 mm
07:10 -20.5 °C -21.3 °C 34841.9 hPa NW 2.9 km/h 7.6 km/h 89 % 0 mm
07:15 -20.5 °C -21.3 °C 34875.8 hPa NW 2.9 km/h 7.6 km/h 89 % 0 mm
07:20 -20.5 °C -21.3 °C 34875.8 hPa WNW 1.3 km/h 5.6 km/h 89 % 0 mm
07:25 -20.5 °C -21.3 °C 34875.8 hPa Calm     89 % 0 mm
07:30 -20.5 °C -21.3 °C 34875.8 hPa Calm     90 % 0 mm
07:35 -20.6 °C -21.3 °C 34875.8 hPa Calm     90 % 0 mm
07:40 -20.6 °C -21.3 °C 34875.8 hPa Calm     90 % 0 mm
07:45 -20.6 °C -21.3 °C 34875.8 hPa Calm     90 % 0 mm
07:46 -20.6 °C -21.3 °C 34875.8 hPa Calm     90 % 0 mm
07:51 -20.6 °C -21.3 °C 34875.8 hPa NW 1 km/h 5.6 km/h 90 % 0 mm
07:56 -20.6 °C -21.3 °C 34875.8 hPa Calm   5.6 km/h 90 % 0 mm
08:01 -20.6 °C -21.3 °C 34909.7 hPa WSW 2.6 km/h 6.9 km/h 90 % 0 mm
08:06 -20.6 °C -21.3 °C 34909.7 hPa WSW 3.1 km/h 6.9 km/h 90 % 0 mm
08:12 -20.6 °C -21.3 °C 34909.7 hPa NW 0.5 km/h 4.2 km/h 90 % 0 mm
08:17 -20.5 °C -21.3 °C 34909.7 hPa Calm     90 % 0 mm
08:22 -20.4 °C -21.2 °C 34909.7 hPa WNW 0.3 km/h 3.4 km/h 90 % 0 mm
08:27 -20.4 °C -21.2 °C 34946.9 hPa WNW 0.3 km/h 3.4 km/h 90 % 0 mm
08:32 -20.4 °C -21.2 °C 34946.9 hPa Calm     90 % 0 mm
08:37 -20.4 °C -21.2 °C 34946.9 hPa Calm     90 % 0 mm
08:42 -20.4 °C -21.2 °C 34909.7 hPa Calm     90 % 0 mm
08:47 -20.3 °C -21.1 °C 34909.7 hPa Calm     90 % 0 mm
08:52 -20.3 °C -21.1 °C 34909.7 hPa West 0.3 km/h 3.4 km/h 90 % 0 mm
08:57 -20.2 °C -21 °C 34909.7 hPa Calm   3.7 km/h 90 % 0 mm
09:02 -20.1 °C -20.9 °C 34909.7 hPa Calm     90 % 0 mm
09:03 -20.1 °C -20.9 °C 34909.7 hPa East 0.3 km/h 4.2 km/h 90 % 0 mm
09:08 -20 °C -20.7 °C 34909.7 hPa ESE 1.3 km/h 5.6 km/h 91 % 0 mm
09:13 -19.9 °C -20.7 °C 34909.7 hPa ESE 2.6 km/h 5.6 km/h 90 % 0 mm
09:18 -19.8 °C -20.6 °C 34909.7 hPa SSE 2.6 km/h 6.4 km/h 90 % 0 mm
09:24 -19.7 °C -20.4 °C 34909.7 hPa South 1.6 km/h 5.6 km/h 91 % 0 mm
09:29 -19.6 °C -20.3 °C 34875.8 hPa South 2.6 km/h 6.4 km/h 91 % 0 mm
09:34 -19.6 °C -20.2 °C 34875.8 hPa South 1.8 km/h 6.4 km/h 91 % 0 mm
09:39 -19.4 °C -20.1 °C 34875.8 hPa SSE 0.8 km/h 5.1 km/h 91 % 0 mm
09:44 -19.3 °C -20.1 °C 34875.8 hPa SE 0.5 km/h 5.1 km/h 91 % 0 mm
09:45 -19.3 °C -20.1 °C 34875.8 hPa SE 0.5 km/h 4.2 km/h 91 % 0 mm
09:50 -19.2 °C -19.9 °C 34875.8 hPa South 1 km/h 4.2 km/h 91 % 0 mm
09:55 -19.1 °C -19.8 °C 34875.8 hPa SE 2.1 km/h 7.6 km/h 91 % 0 mm
10:00 -18.9 °C -19.7 °C 34909.7 hPa SE 2.6 km/h 8.9 km/h 91 % 0 mm
10:05 -18.8 °C -19.5 °C 34909.7 hPa SSE 2.6 km/h 8.9 km/h 91 % 0 mm
10:15 -18.6 °C -19.3 °C 34909.7 hPa South 2.1 km/h 7.6 km/h 91 % 0 mm
10:20 -18.5 °C -19.1 °C 34909.7 hPa SE 2.3 km/h 6.4 km/h 92 % 0 mm
10:25 -18.4 °C -19 °C 34909.7 hPa SE 4.2 km/h 6.4 km/h 92 % 0 mm
10:30 -18.3 °C -18.9 °C 34909.7 hPa SSE 5.1 km/h 7.6 km/h 92 % 0 mm
10:35 -18.1 °C -18.7 °C 34909.7 hPa SSE 5 km/h 7.6 km/h 92 % 0 mm
10:40 -18.1 °C -18.7 °C 34909.7 hPa SSE 4.2 km/h 8.9 km/h 92 % 0 mm
10:45 -17.9 °C -18.5 °C 34875.8 hPa SSE 4.7 km/h 8.9 km/h 92 % 0 mm
10:50 -17.7 °C -18.4 °C 34875.8 hPa SE 5.6 km/h 8 km/h 92 % 0 mm
10:51 -17.7 °C -18.4 °C 34875.8 hPa SE 5.5 km/h 8 km/h 92 % 0 mm
10:56 -17.7 °C -18.3 °C 34875.8 hPa SE 5.5 km/h 7.6 km/h 92 % 0 mm
11:01 -17.6 °C -18.1 °C 34875.8 hPa SSE 5.5 km/h 9.3 km/h 93 % 0 mm
11:06 -17.4 °C -17.9 °C 34875.8 hPa SSE 5.1 km/h 9.8 km/h 93 % 0 mm
11:11 -17.3 °C -17.8 °C 34875.8 hPa SE 5.5 km/h 7.6 km/h 93 % 0 mm
11:16 -17.1 °C -17.6 °C 34946.9 hPa South 5.1 km/h 7.6 km/h 93 % 0 mm
11:21 -16.9 °C -17.4 °C 34946.9 hPa SSE 6.3 km/h 7.6 km/h 93 % 0 mm
11:26 -16.6 °C -17.2 °C 34909.7 hPa SE 5.1 km/h 7.6 km/h 93 % 0 mm
11:31 -16.4 °C -16.9 °C 34909.7 hPa SE 2.9 km/h 7.6 km/h 93 % 0 mm
11:36 -16.3 °C -16.9 °C 34909.7 hPa SSE 2.6 km/h 9.8 km/h 93 % 0 mm
11:41 -16.1 °C -16.6 °C 34909.7 hPa SSE 3.9 km/h 9.8 km/h 93 % 0 mm
11:46 -15.8 °C -16.4 °C 34909.7 hPa South 4.3 km/h 7.6 km/h 93 % 0 mm
11:51 -15.7 °C -16.2 °C 34909.7 hPa South 6.8 km/h 11.1 km/h 93 % 0 mm
12:16 -14.9 °C -15.8 °C 34875.8 hPa SSW 7.6 km/h 8 km/h 90 % 0 mm
12:18 -14.9 °C -15.7 °C 34875.8 hPa SSW 7.2 km/h 8 km/h 90 % 0 mm
12:19 -14.8 °C -15.7 °C 34875.8 hPa SSW 6.8 km/h 8 km/h 90 % 0 mm
12:20 -14.8 °C -15.7 °C 34875.8 hPa South 6.3 km/h 8 km/h 90 % 0 mm
12:30 -14.8 °C -15.6 °C 34875.8 hPa South 6.3 km/h 8 km/h 90 % 0 mm
12:35 -14.6 °C -15.6 °C 34875.8 hPa SSW 6.8 km/h 10.3 km/h 88 % 0 mm
12:40 -14.5 °C -15.6 °C 34875.8 hPa SSW 8.2 km/h 11.1 km/h 87 % 0 mm
12:45 -14.4 °C -15.6 °C 34841.9 hPa SSW 7.6 km/h 11.1 km/h 86 % 0 mm
12:50 -14.4 °C -15.7 °C 34841.9 hPa South 5.6 km/h 9.8 km/h 85 % 0 mm
12:55 -14.6 °C -15.9 °C 34841.9 hPa South 7.6 km/h 10.3 km/h 84 % 0 mm
13:00 -14.6 °C -16.1 °C 34841.9 hPa South 7.2 km/h 10.3 km/h 83 % 0 mm
13:05 -14.6 °C -16.2 °C 34841.9 hPa South 7.7 km/h 12.7 km/h 82 % 0 mm
13:10 -14.7 °C -16.3 °C 34841.9 hPa South 8.2 km/h 14 km/h 81 % 0 mm
13:15 -14.7 °C -16.6 °C 34841.9 hPa South 8.9 km/h 14.5 km/h 79 % 0 mm
13:20 -14.6 °C -16.6 °C 34841.9 hPa SSW 10.3 km/h 19.2 km/h 78 % 0 mm
13:25 -14.6 °C -16.6 °C 34841.9 hPa SSW 11.4 km/h 19.2 km/h 77 % 0 mm
13:30 -14.6 °C -16.7 °C 34841.9 hPa SSW 10.6 km/h 16.3 km/h 76 % 0 mm
13:35 -14.5 °C -16.8 °C 34841.9 hPa SSW 10.6 km/h 15 km/h 75 % 0 mm
13:40 -14.4 °C -16.9 °C 34841.9 hPa SW 11.4 km/h 16.9 km/h 73 % 0 mm
13:45 -14.4 °C -17.1 °C 34875.8 hPa SW 11.4 km/h 19.2 km/h 71 % 0 mm
13:50 -14.4 °C -17.2 °C 34875.8 hPa SW 11.1 km/h 19.2 km/h 70 % 0 mm
13:55 -14.3 °C -17.2 °C 34875.8 hPa SSW 12.4 km/h 20.3 km/h 69 % 0 mm
14:00 -14.2 °C -17.2 °C 34841.9 hPa SSW 13.2 km/h 20.3 km/h 68 % 0 mm
14:05 -14 °C -17.3 °C 34841.9 hPa SW 13.5 km/h 16.9 km/h 66 % 0 mm
14:10 -13.9 °C -17.4 °C 34841.9 hPa SW 12.9 km/h 16.9 km/h 64 % 0 mm
14:15 -13.9 °C -17.6 °C 34841.9 hPa SW 10.6 km/h 16.9 km/h 63 % 0 mm
14:20 -14 °C -17.8 °C 34841.9 hPa SW 9.3 km/h 16.9 km/h 62 % 0 mm
14:25 -14 °C -17.9 °C 34841.9 hPa SW 9 km/h 14.5 km/h 61 % 0 mm
14:30 -14 °C -18 °C 34841.9 hPa SW 8 km/h 10.3 km/h 60 % 0 mm
14:31 -14 °C -18 °C 34841.9 hPa SW 7.7 km/h 12.7 km/h 60 % 0 mm
14:36 -14 °C -18.2 °C 34841.9 hPa SW 8.5 km/h 15.6 km/h 59 % 0 mm
14:41 -14 °C -18.3 °C 34841.9 hPa SSW 10.1 km/h 16.3 km/h 58 % 0 mm
14:46 -14.1 °C -18.4 °C 34841.9 hPa SW 9 km/h 16.3 km/h 57 % 0 mm
14:51 -14.1 °C -18.5 °C 34841.9 hPa WSW 5.6 km/h 12.2 km/h 57 % 0 mm
14:56 -14.2 °C -18.8 °C 34841.9 hPa WSW 4.2 km/h 9.8 km/h 56 % 0 mm
15:01 -14.3 °C -19 °C 34841.9 hPa WSW 5.1 km/h 9.8 km/h 55 % 0 mm
15:06 -14.4 °C -19.1 °C 34841.9 hPa WSW 5.5 km/h 9.3 km/h 55 % 0 mm
15:11 -14.6 °C -19.3 °C 34841.9 hPa SW 4.2 km/h 7.6 km/h 55 % 0 mm
15:16 -14.8 °C -19.4 °C 34841.9 hPa SW 4.2 km/h 7.6 km/h 55 % 0 mm
15:26 -15.3 °C -19.9 °C 34841.9 hPa NW 2.3 km/h 6.9 km/h 55 % 0 mm
15:31 -15.6 °C -20.1 °C 34841.9 hPa NW 1.8 km/h 5.6 km/h 55 % 0 mm
15:36 -15.8 °C -20.3 °C 34841.9 hPa NW 1 km/h 5.6 km/h 55 % 0 mm
15:41 -15.9 °C -20.4 °C 34841.9 hPa NW 0.3 km/h 3.4 km/h 56 % 0 mm
15:46 -16.2 °C -20.6 °C 34875.8 hPa NW 1 km/h 5.6 km/h 56 % 0 mm
15:51 -16.3 °C -20.6 °C 34875.8 hPa NW 0.3 km/h 4.2 km/h 57 % 0 mm
15:56 -16.5 °C -20.7 °C 34875.8 hPa NW 0.3 km/h 4.2 km/h 57 % 0 mm
16:01 -16.6 °C -20.7 °C 34875.8 hPa NW 1.3 km/h 6.9 km/h 58 % 0 mm
16:06 -16.8 °C -20.8 °C 34875.8 hPa NW 2.3 km/h 6.9 km/h 59 % 0 mm
16:11 -16.9 °C -20.9 °C 34875.8 hPa NNW 4.2 km/h 7.6 km/h 59 % 0 mm
16:16 -17.8 °C -20.9 °C 0 hPa Calm     0 % 0 mm
16:21 -17.1 °C -20.9 °C 34875.8 hPa NNW 6.4 km/h 7.6 km/h 60 % 0 mm
16:26 -17.1 °C -20.8 °C 34875.8 hPa NNW 5.5 km/h 8 km/h 61 % 0 mm
16:31 -17.2 °C -20.8 °C 34875.8 hPa NNW 2.3 km/h 8 km/h 62 % 0 mm
16:36 -17.3 °C -20.7 °C 34875.8 hPa Calm     63 % 0 mm
16:41 -17.3 °C -20.8 °C 34875.8 hPa Calm     63 % 0 mm
16:46 -17.4 °C -20.8 °C 34875.8 hPa Calm     64 % 0 mm
16:51 -17.4 °C -20.8 °C 34875.8 hPa WNW 3.1 km/h 5.1 km/h 64 % 0 mm
16:56 -17.6 °C -20.8 °C 34909.7 hPa NW 0.5 km/h 5.1 km/h 65 % 0 mm
17:01 -17.6 °C -20.8 °C 34909.7 hPa NW 1.6 km/h 5.1 km/h 65 % 0 mm
17:06 -17.7 °C -20.8 °C 34909.7 hPa WNW 1.3 km/h 5.1 km/h 66 % 0 mm
17:11 -17.7 °C -20.8 °C 34909.7 hPa West 0.8 km/h 3.4 km/h 66 % 0 mm
17:16 -17.7 °C -20.7 °C 34909.7 hPa WSW 1.3 km/h 6.4 km/h 67 % 0 mm
17:21 -17.7 °C -20.6 °C 34909.7 hPa NW 3.4 km/h 7.6 km/h 68 % 0 mm
17:26 -17.7 °C -20.6 °C 34909.7 hPa NNW 2.6 km/h 7.6 km/h 68 % 0 mm
17:31 -17.7 °C -20.4 °C 34875.8 hPa NNW 0.8 km/h 4.2 km/h 69 % 0 mm
17:36 -17.7 °C -20.4 °C 34875.8 hPa Calm     69 % 0 mm
17:41 -17.7 °C -20.3 °C 34875.8 hPa Calm     70 % 0 mm
17:46 -17.6 °C -20.3 °C 34909.7 hPa North 1 km/h   70 % 0 mm
17:51 -17.6 °C -20.2 °C 34909.7 hPa WNW 3.1 km/h 5.6 km/h 71 % 0 mm
17:56 -17.6 °C -20.2 °C 34909.7 hPa WNW 1.6 km/h 5.6 km/h 71 % 0 mm
18:01 -17.6 °C -20.1 °C 34909.7 hPa Calm   2.9 km/h 72 % 0 mm
18:06 -17.6 °C -20.1 °C 34909.7 hPa WNW 2.1 km/h 6.4 km/h 72 % 0 mm
18:11 -17.6 °C -20 °C 34909.7 hPa WNW 2.6 km/h 6.4 km/h 73 % 0 mm
18:16 -17.7 °C -20.1 °C 34909.7 hPa NW 1.3 km/h 3.4 km/h 73 % 0 mm
18:21 -17.7 °C -19.9 °C 34909.7 hPa Calm     74 % 0 mm
18:26 -17.7 °C -19.9 °C 34909.7 hPa Calm     74 % 0 mm
18:31 -17.7 °C -20 °C 34909.7 hPa Calm     74 % 0 mm
18:36 -17.7 °C -20 °C 34909.7 hPa Calm     74 % 0 mm
18:41 -17.8 °C -19.9 °C 34909.7 hPa Calm     75 % 0 mm
18:47 -17.8 °C -19.9 °C 34909.7 hPa SW 2.9 km/h 8 km/h 75 % 0 mm
18:52 -17.8 °C -19.9 °C 34909.7 hPa WSW 3.9 km/h 8 km/h 75 % 0 mm
18:57 -17.8 °C -19.9 °C 34909.7 hPa NNW 2.3 km/h 6.4 km/h 76 % 0 mm
19:02 -17.8 °C -19.9 °C 34909.7 hPa Calm     76 % 0 mm
19:07 -17.9 °C -19.9 °C 34909.7 hPa Calm     76 % 0 mm
19:12 -17.9 °C -19.9 °C 34875.8 hPa Calm     76 % 0 mm
19:17 -17.9 °C -19.8 °C 34875.8 hPa Calm     77 % 0 mm
19:22 -17.9 °C -19.8 °C 34875.8 hPa Calm     77 % 0 mm
19:27 -17.9 °C -19.8 °C 34909.7 hPa Calm     77 % 0 mm
19:32 -17.9 °C -19.9 °C 34909.7 hPa Calm     77 % 0 mm
19:37 -18 °C -19.9 °C 34909.7 hPa Calm     77 % 0 mm
19:42 -18.1 °C -19.9 °C 34909.7 hPa Calm     78 % 0 mm
19:47 -18.1 °C -19.9 °C 34909.7 hPa Calm     78 % 0 mm
19:52 -18.2 °C -20.1 °C 34909.7 hPa Calm     78 % 0 mm
19:57 -18.3 °C -20.2 °C 34946.9 hPa Calm     78 % 0 mm
20:02 -18.3 °C -20.2 °C 34946.9 hPa WNW 0.5 km/h 5.6 km/h 78 % 0 mm
20:07 -18.4 °C -20.3 °C 34946.9 hPa WNW 0.5 km/h 5.6 km/h 78 % 0 mm
20:12 -18.5 °C -20.3 °C 34946.9 hPa Calm     79 % 0 mm
20:17 -18.6 °C -20.3 °C 34946.9 hPa Calm     79 % 0 mm
20:23 -18.6 °C -20.3 °C 34909.7 hPa Calm     79 % 0 mm
20:28 -18.6 °C -20.4 °C 34909.7 hPa SSW 1.3 km/h 5.1 km/h 79 % 0 mm
20:33 -18.6 °C -20.4 °C 34909.7 hPa WSW 2.1 km/h 5.1 km/h 79 % 0 mm
20:38 -18.7 °C -20.5 °C 34909.7 hPa WNW 2.1 km/h 5.1 km/h 79 % 0 mm
20:43 -18.7 °C -20.5 °C 34909.7 hPa NW 0.8 km/h 5.1 km/h 79 % 0 mm
20:48 -18.8 °C -20.5 °C 34909.7 hPa NNW 0.3 km/h 4.2 km/h 79 % 0 mm
20:53 -18.8 °C -20.6 °C 34909.7 hPa Calm   5.6 km/h 79 % 0 mm
20:58 -18.8 °C -20.5 °C 34909.7 hPa Calm   5.6 km/h 80 % 0 mm
21:03 -18.9 °C -20.6 °C 34909.7 hPa Calm     80 % 0 mm
21:08 -18.9 °C -20.6 °C 34909.7 hPa Calm     80 % 0 mm
21:13 -18.9 °C -20.6 °C 34909.7 hPa Calm     80 % 0 mm
21:18 -19 °C -20.7 °C 34909.7 hPa SSW 0.3 km/h 4.2 km/h 80 % 0 mm
21:23 -19.1 °C -20.7 °C 34909.7 hPa SSW 0.3 km/h 4.2 km/h 80 % 0 mm
21:28 -19.1 °C -20.6 °C 34909.7 hPa Calm     81 % 0 mm
21:33 -19.1 °C -20.6 °C 34909.7 hPa Calm     81 % 0 mm
21:38 -19.1 °C -20.6 °C 34909.7 hPa Calm     81 % 0 mm
21:43 -19.1 °C -20.6 °C 34909.7 hPa Calm     81 % 0 mm
21:48 -19.1 °C -20.7 °C 34909.7 hPa Calm     81 % 0 mm
21:53 -19.1 °C -20.7 °C 34909.7 hPa Calm     81 % 0 mm
21:58 -19.2 °C -20.7 °C 34909.7 hPa Calm     81 % 0 mm
22:04 -19.2 °C -20.8 °C 34909.7 hPa Calm     81 % 0 mm
22:09 -19.2 °C -20.7 °C 34909.7 hPa Calm     82 % 0 mm
22:14 -17.8 °C -20.7 °C 0 hPa Calm     0 % 0 mm
22:19 -19.3 °C -20.8 °C 34909.7 hPa Calm     82 % 0 mm
22:24 -19.3 °C -20.8 °C 34909.7 hPa Calm     82 % 0 mm
22:29 -19.3 °C -20.8 °C 34909.7 hPa SW 1.8 km/h 6.9 km/h 82 % 0 mm
22:34 -19.4 °C -20.9 °C 34909.7 hPa NNW 3.4 km/h 6.4 km/h 82 % 0 mm
22:39 -19.4 °C -20.9 °C 34909.7 hPa NNW 3.7 km/h 6.4 km/h 82 % 0 mm
22:44 -19.4 °C -20.8 °C 34909.7 hPa NNW 2.3 km/h 6.4 km/h 83 % 0 mm
22:49 -19.4 °C -20.8 °C 34909.7 hPa SW 0.3 km/h 4.2 km/h 83 % 0 mm
22:54 -19.4 °C -20.8 °C 34909.7 hPa Calm   4.2 km/h 83 % 0 mm
22:59 -19.5 °C -20.9 °C 34909.7 hPa Calm     83 % 0 mm
23:04 -19.6 °C -20.9 °C 34909.7 hPa Calm     83 % 0 mm
23:09 -19.6 °C -20.9 °C 34909.7 hPa SW 0.3 km/h 3.4 km/h 83 % 0 mm
23:14 -19.6 °C -21 °C 34909.7 hPa SW 0.3 km/h 3.4 km/h 83 % 0 mm
23:19 -19.6 °C -21 °C 34909.7 hPa Calm   3.4 km/h 83 % 0 mm
23:20 -19.6 °C -21 °C 34909.7 hPa WSW 0.3 km/h 4.2 km/h 83 % 0 mm
23:25 -19.6 °C -20.9 °C 34909.7 hPa WNW 1.8 km/h 5.1 km/h 84 % 0 mm
23:31 -19.7 °C -20.9 °C 34909.7 hPa NNW 2.1 km/h 5.1 km/h 84 % 0 mm
23:36 -19.7 °C -21 °C 34909.7 hPa NNE 0.5 km/h 5.1 km/h 84 % 0 mm
23:40 -19.7 °C -21 °C 34909.7 hPa Calm     84 % 0 mm
23:46 -19.7 °C -21 °C 34909.7 hPa Calm     84 % 0 mm
23:51 -19.8 °C -21.1 °C 34909.7 hPa Calm     84 % 0 mm
23:56 -19.8 °C -21.1 °C 34909.7 hPa Calm     84 % 0 mm
Vremenska postaja Senovo
Podatki zbrani iz Weather Underground - 3 mb

Script developed by  Jim McMurry - jmcmurry@mwt.net Adapted for the template by  Wim van der Kuil - Leuven-Template.eu

Vremenski podatki so objavljeni na:

European Weather Network

WeatherCloud

Weather Underground

AWEKAS

HAMweather, WeatherForYou, PWS Weather

MapView

Geostik

Slovenia weather network

Oprema, ki se uporablja:

Vremenski program
Cumulus

Vremenski server
Asus

Cumulus

Asus